Time;durP1;ratioP1;P1;durP2;ratioP2;P2;SDS_P1;SDS_P2;PMS_P1;PMS_P2;Temp;Humidity;BMP_temperature;BMP_pressure;BME280_temperature;BME280_humidity;BME280_pressure;Samples;Min_cycle;Max_cycle;Signal;HPM_P1;HPM_P2
2022/04/11 00:01:30;;;;;;;59.40;53.40;;;;;;;0.83;78.04;98048.95;107532;1290;22318;-81
2022/04/11 00:03:58;;;;;;;58.40;52.80;;;;;;;0.85;78.08;98048.63;107965;1290;22355;-81
2022/04/11 00:06:26;;;;;;;58.00;52.50;;;;;;;0.87;78.32;98048.87;107959;1290;22488;-81
2022/04/11 00:08:54;;;;;;;57.50;51.20;;;;;;;0.88;78.02;98045.35;107668;1290;22470;-81
2022/04/11 00:11:22;;;;;;;53.60;48.40;;;;;;;0.95;78.34;98043.05;107640;1293;23045;-81
2022/04/11 00:13:50;;;;;;;60.10;54.20;;;;;;;1.01;78.21;98051.88;107646;1292;22365;-80
2022/04/11 00:16:18;;;;;;;59.70;53.80;;;;;;;1.06;78.17;98052.98;107665;1292;22358;-81
2022/04/11 00:18:46;;;;;;;61.80;55.50;;;;;;;1.09;78.46;98053.13;107458;1293;23070;-83
2022/04/11 00:21:13;;;;;;;61.70;55.80;;;;;;;1.12;78.26;98048.83;107652;1291;23024;-82
2022/04/11 00:23:41;;;;;;;61.70;55.50;;;;;;;1.14;78.24;98050.48;107641;1293;22241;-79
2022/04/11 00:26:09;;;;;;;58.60;53.00;;;;;;;1.17;78.53;98054.92;107649;1292;22395;-81
2022/04/11 00:28:38;;;;;;;59.20;53.40;;;;;;;1.23;78.34;98054.08;107653;1293;22266;-80
2022/04/11 00:31:06;;;;;;;57.40;51.70;;;;;;;1.28;78.41;98055.52;107391;1293;364577;-80
2022/04/11 00:33:33;;;;;;;60.60;54.50;;;;;;;1.30;78.08;98051.99;107629;1293;22283;-80
2022/04/11 00:36:01;;;;;;;57.20;51.70;;;;;;;1.27;78.30;98048.48;107393;1293;22373;-80
2022/04/11 00:38:29;;;;;;;54.90;49.50;;;;;;;1.24;78.19;98047.26;107647;1293;22359;-81
2022/04/11 00:40:58;;;;;;;50.90;45.60;;;;;;;1.18;78.58;98050.86;107674;1293;22388;-81
2022/04/11 00:43:30;;;;;;;49.10;44.10;;;;;;;1.13;78.60;98049.58;107474;1293;22965;-80
2022/04/11 00:45:58;;;;;;;46.20;41.40;;;;;;;1.08;78.64;98050.82;107430;1293;22445;-81
2022/04/11 00:48:27;;;;;;;47.20;41.50;;;;;;;1.06;78.59;98048.52;107457;1293;22391;-81
2022/04/11 00:51:00;;;;;;;46.90;42.20;;;;;;;1.05;78.81;98052.90;107674;1292;22376;-81
2022/04/11 00:53:31;;;;;;;48.40;43.40;;;;;;;1.02;78.98;98052.27;107643;1292;22365;-81
2022/04/11 00:56:01;;;;;;;45.20;40.50;;;;;;;1.01;78.78;98056.13;107609;1292;22336;-81
2022/04/11 00:58:30;;;;;;;46.90;42.00;;;;;;;1.02;79.01;98051.67;107662;1292;22375;-80
2022/04/11 01:00:59;;;;;;;46.60;41.60;;;;;;;1.02;79.03;98055.34;107473;1293;22274;-81
2022/04/11 01:03:28;;;;;;;46.00;41.30;;;;;;;1.04;78.69;98058.42;107467;1293;22452;-80
2022/04/11 01:05:55;;;;;;;48.20;43.30;;;;;;;1.05;78.89;98054.78;107643;1293;23094;-80
2022/04/11 01:08:24;;;;;;;46.30;41.60;;;;;;;1.07;78.86;98062.46;107648;1292;23245;-80
2022/04/11 01:10:52;;;;;;;47.40;42.60;;;;;;;1.08;79.29;98064.41;107438;1292;22248;-80
2022/04/11 01:13:21;;;;;;;44.70;40.00;;;;;;;1.11;79.19;98066.11;107463;1292;22251;-80
2022/04/11 01:15:54;;;;;;;41.40;37.20;;;;;;;1.14;79.48;98067.24;107457;1292;22356;-80
2022/04/11 01:18:22;;;;;;;41.50;37.10;;;;;;;1.19;79.24;98064.36;107409;1293;22303;-80
2022/04/11 01:20:51;;;;;;;43.60;39.20;;;;;;;1.25;79.37;98069.73;107644;1293;22271;-80
2022/04/11 01:23:20;;;;;;;44.30;39.80;;;;;;;1.28;79.15;98070.11;107464;1293;22780;-80
2022/04/11 01:25:52;;;;;;;45.90;41.30;;;;;;;1.30;79.23;98070.00;107326;1293;22410;-80
2022/04/11 01:28:22;;;;;;;46.30;41.50;;;;;;;1.32;79.36;98069.02;107447;1293;23011;-80
2022/04/11 01:30:52;;;;;;;43.70;39.20;;;;;;;1.31;79.31;98072.67;107631;1292;22247;-80
2022/04/11 01:33:26;;;;;;;43.40;38.80;;;;;;;1.32;79.34;98068.52;107442;1294;22255;-80
2022/04/11 01:35:56;;;;;;;42.70;37.90;;;;;;;1.37;79.30;98068.02;107322;1293;23070;-80
2022/04/11 01:38:24;;;;;;;43.00;38.40;;;;;;;1.41;79.31;98069.05;107417;1294;22211;-80
2022/04/11 01:40:54;;;;;;;41.40;37.20;;;;;;;1.43;79.10;98070.68;107630;1292;22330;-81
2022/04/11 01:43:24;;;;;;;43.20;38.60;;;;;;;1.44;79.20;98071.06;107652;1292;22365;-81
2022/04/11 01:45:53;;;;;;;42.80;38.50;;;;;;;1.43;79.14;98074.08;107431;1292;22521;-81
2022/04/11 01:48:34;;;;;;;41.20;37.10;;;;;;;1.40;79.22;98082.34;107412;1292;25544;-81
2022/04/11 01:51:03;;;;;;;38.80;34.90;;;;;;;1.38;79.07;98081.90;107636;1293;22307;-80
2022/04/11 01:53:31;;;;;;;39.40;35.20;;;;;;;1.40;79.05;98082.46;107620;1293;22497;-80
2022/04/11 01:55:59;;;;;;;38.20;34.10;;;;;;;1.43;79.26;98082.64;107458;1293;22432;-81
2022/04/11 01:58:29;;;;;;;46.10;41.40;;;;;;;1.44;79.40;98084.66;107511;1292;22478;-80
2022/04/11 02:00:58;;;;;;;50.20;45.20;;;;;;;1.46;79.48;98089.27;107559;1293;22350;-80
2022/04/11 02:03:30;;;;;;;53.60;48.50;;;;;;;1.52;79.77;98088.06;107539;1292;22521;-81
2022/04/11 02:05:58;;;;;;;49.00;43.90;;;;;;;1.55;79.85;98087.34;107544;1292;22269;-81
2022/04/11 02:08:26;;;;;;;45.60;39.90;;;;;;;1.59;79.63;98086.13;107592;1292;22294;-81
2022/04/11 02:10:59;;;;;;;45.60;41.00;;;;;;;1.64;79.63;98083.68;107657;1292;22558;-80
2022/04/11 02:13:28;;;;;;;45.10;40.40;;;;;;;1.68;79.53;98089.59;107628;1293;22358;-78
2022/04/11 02:15:56;;;;;;;42.90;38.60;;;;;;;1.68;79.27;98088.59;107664;1293;22206;-78
2022/04/11 02:18:25;;;;;;;48.60;43.90;;;;;;;1.67;79.39;98089.07;107661;1292;22364;-84
2022/04/11 02:20:52;;;;;;;44.00;39.80;;;;;;;1.65;79.33;98090.45;107332;1294;22275;-84
2022/04/11 02:23:21;;;;;;;40.50;36.30;;;;;;;1.62;79.35;98097.25;107434;1293;22363;-82
2022/04/11 02:25:49;;;;;;;39.50;35.30;;;;;;;1.60;79.34;98094.98;107622;1292;22353;-83
2022/04/11 02:28:17;;;;;;;41.00;37.10;;;;;;;1.59;79.23;98098.03;107564;1293;22367;-83
2022/04/11 02:30:46;;;;;;;38.20;34.60;;;;;;;1.56;79.29;98100.11;107436;1293;22281;-84
2022/04/11 02:33:14;;;;;;;40.70;36.40;;;;;;;1.52;79.04;98103.25;107651;1292;22973;-84
2022/04/11 02:35:42;;;;;;;40.80;37.00;;;;;;;1.45;79.24;98106.63;107612;1292;22443;-83
2022/04/11 02:38:10;;;;;;;36.90;33.30;;;;;;;1.37;79.02;98106.45;107324;1293;22322;-84
2022/04/11 02:40:39;;;;;;;35.60;31.90;;;;;;;1.31;79.18;98104.81;107555;1293;22973;-84
2022/04/11 02:43:27;;;;;;;37.70;33.50;;;;;;;1.32;79.23;98107.40;107478;1293;22220;-84
2022/04/11 02:45:59;;;;;;;37.60;33.70;;;;;;;1.34;79.36;98104.80;107551;1294;22310;-84
2022/04/11 02:48:34;;;;;;;40.90;36.80;;;;;;;1.31;79.52;98110.49;107548;1293;23105;-84
2022/04/11 02:51:08;;;;;;;37.80;34.00;;;;;;;1.25;79.46;98108.06;107533;1293;23357;-84
2022/04/11 02:53:46;;;;;;;36.70;32.80;;;;;;;1.18;79.62;98110.78;107461;1294;22433;-80
2022/04/11 02:56:14;;;;;;;34.70;31.30;;;;;;;1.16;79.86;98113.14;107623;1293;22415;-78
2022/04/11 02:58:43;;;;;;;32.30;29.00;;;;;;;1.14;79.75;98105.45;107540;1293;22372;-79
2022/04/11 03:01:11;;;;;;;34.30;30.80;;;;;;;1.16;79.79;98105.64;107553;1293;22269;-78
2022/04/11 03:03:41;;;;;;;35.40;31.80;;;;;;;1.19;79.93;98107.09;107520;1293;22389;-76
2022/04/11 03:06:09;;;;;;;35.40;31.90;;;;;;;1.17;79.93;98111.36;107616;1292;22177;-78
2022/04/11 03:08:38;;;;;;;34.40;31.10;;;;;;;1.15;79.87;98106.95;107555;1293;22419;-79
2022/04/11 03:11:06;;;;;;;31.10;27.90;;;;;;;1.12;79.96;98115.13;107423;1294;22508;-78
2022/04/11 03:13:34;;;;;;;27.90;25.10;;;;;;;1.12;80.05;98113.46;107320;1293;22885;-78
2022/04/11 03:16:03;;;;;;;26.90;24.20;;;;;;;1.12;79.90;98112.63;107527;1293;22281;-78
2022/04/11 03:18:31;;;;;;;24.50;21.90;;;;;;;1.18;80.10;98120.02;107520;1293;22207;-78
2022/04/11 03:20:59;;;;;;;26.60;24.10;;;;;;;1.20;80.33;98120.95;107520;1294;22544;-78
2022/04/11 03:23:27;;;;;;;25.70;23.00;;;;;;;1.20;80.37;98122.88;107508;1293;22299;-78
2022/04/11 03:25:56;;;;;;;25.70;23.20;;;;;;;1.19;80.58;98122.16;107513;1293;22375;-79
2022/04/11 03:28:26;;;;;;;21.70;19.50;;;;;;;1.18;80.43;98120.17;107519;1292;22283;-78
2022/04/11 03:30:54;;;;;;;23.10;20.80;;;;;;;1.21;80.33;98120.03;107597;1293;22297;-79
2022/04/11 03:33:26;;;;;;;23.70;21.20;;;;;;;1.25;80.27;98129.42;107512;1292;23021;-78
2022/04/11 03:35:54;;;;;;;28.30;25.40;;;;;;;1.27;80.37;98127.39;107527;1293;22256;-78
2022/04/11 03:38:22;;;;;;;29.70;26.50;;;;;;;1.28;80.56;98124.63;107427;1292;22253;-78
2022/04/11 03:40:50;;;;;;;30.50;27.40;;;;;;;1.27;80.38;98126.65;107603;1293;22393;-78
2022/04/11 03:43:18;;;;;;;40.50;31.00;;;;;;;1.29;80.46;98127.35;107621;1293;23003;-78
2022/04/11 03:45:46;;;;;;;34.70;29.10;;;;;;;1.34;80.36;98130.30;107487;1294;22667;-78
2022/04/11 03:48:15;;;;;;;39.60;35.00;;;;;;;1.38;80.47;98130.16;107535;1294;22396;-78
2022/04/11 03:50:43;;;;;;;28.70;25.90;;;;;;;1.39;80.63;98134.32;107503;1292;22266;-78
2022/04/11 03:53:12;;;;;;;45.10;35.40;;;;;;;1.36;80.49;98128.37;107439;1293;22256;-78
2022/04/11 03:55:41;;;;;;;44.90;36.50;;;;;;;1.33;80.68;98130.05;107461;1293;22365;-78
2022/04/11 03:58:10;;;;;;;48.40;36.40;;;;;;;1.31;80.86;98126.93;107641;1292;22389;-78
2022/04/11 04:00:40;;;;;;;44.60;34.50;;;;;;;1.33;80.40;98135.21;107453;1292;22366;-78
2022/04/11 04:03:28;;;;;;;37.70;30.50;;;;;;;1.34;80.65;98141.66;107609;1292;22272;-78
2022/04/11 04:06:00;;;;;;;36.20;30.50;;;;;;;1.35;80.64;98144.42;107443;1293;23093;-78
2022/04/11 04:08:32;;;;;;;40.20;34.20;;;;;;;1.33;80.87;98144.88;107520;1293;22573;-78
2022/04/11 04:11:06;;;;;;;34.00;30.10;;;;;;;1.32;80.61;98151.55;107491;1293;22995;-78
2022/04/11 04:13:39;;;;;;;37.60;31.50;;;;;;;1.32;80.59;98152.77;107506;1293;22449;-79
2022/04/11 04:16:07;;;;;;;51.60;41.20;;;;;;;1.33;80.55;98159.05;107433;1294;22365;-79
2022/04/11 04:18:37;;;;;;;55.70;41.60;;;;;;;1.36;80.57;98162.31;107523;1293;22459;-78
2022/04/11 04:21:08;;;;;;;35.10;31.10;;;;;;;1.42;80.74;98164.70;107530;1293;22582;-79
2022/04/11 04:23:36;;;;;;;32.20;28.80;;;;;;;1.43;80.68;98168.02;107517;1293;22274;-79
2022/04/11 04:26:04;;;;;;;40.40;33.30;;;;;;;1.44;80.66;98164.21;107507;1293;22485;-78
2022/04/11 04:28:31;;;;;;;39.50;34.70;;;;;;;1.45;80.70;98164.89;107609;1292;22312;-78
2022/04/11 04:30:59;;;;;;;36.60;31.90;;;;;;;1.44;80.76;98166.98;107514;1293;22261;-78
2022/04/11 04:33:31;;;;;;;38.40;32.30;;;;;;;1.43;80.67;98169.66;107522;1293;22713;-78
2022/04/11 04:36:05;;;;;;;38.30;32.30;;;;;;;1.45;80.44;98170.30;107450;1293;22905;-79
2022/04/11 04:38:33;;;;;;;40.30;34.40;;;;;;;1.47;80.75;98176.45;107444;1293;22484;-79
2022/04/11 04:41:01;;;;;;;37.00;33.20;;;;;;;1.50;80.95;98172.76;107528;1293;22367;-79
2022/04/11 04:43:29;;;;;;;37.10;33.30;;;;;;;1.53;80.88;98177.48;107553;1293;23008;-78
2022/04/11 04:45:57;;;;;;;43.20;39.20;;;;;;;1.52;80.81;98181.81;107514;1294;22272;-80
2022/04/11 04:48:42;;;;;;;;;;;;;;;1.49;80.54;98183.84;107467;1293;23439;-80
2022/04/11 04:51:10;;;;;;;44.90;40.20;;;;;;;1.49;80.64;98187.70;107519;1292;22407;-79
2022/04/11 04:53:42;;;;;;;50.00;44.60;;;;;;;1.53;80.76;98190.91;107483;1294;22274;-79
2022/04/11 04:56:10;;;;;;;51.50;46.30;;;;;;;1.56;80.88;98188.86;107631;1292;22373;-79
2022/04/11 04:58:40;;;;;;;46.10;41.30;;;;;;;1.56;80.55;98195.66;107634;1293;22275;-79
2022/04/11 05:01:08;;;;;;;48.50;43.30;;;;;;;1.53;80.87;98202.22;107580;1292;22476;-79
2022/04/11 05:03:37;;;;;;;37.20;33.40;;;;;;;1.50;80.90;98202.38;107523;1294;22302;-79
2022/04/11 05:06:05;;;;;;;31.60;28.20;;;;;;;1.50;80.99;98206.88;107514;1293;22339;-80
2022/04/11 05:08:34;;;;;;;28.40;25.40;;;;;;;1.50;80.66;98207.08;107512;1292;22261;-79
2022/04/11 05:11:05;;;;;;;32.60;29.20;;;;;;;1.54;81.04;98214.20;107453;1293;22260;-79
2022/04/11 05:13:34;;;;;;;35.00;30.90;;;;;;;1.55;80.96;98221.02;107471;1294;22361;-79
2022/04/11 05:16:02;;;;;;;35.50;32.10;;;;;;;1.55;81.05;98220.34;107500;1293;22244;-79
2022/04/11 05:18:31;;;;;;;34.70;31.50;;;;;;;1.54;81.13;98223.23;107535;1293;22301;-79
2022/04/11 05:20:58;;;;;;;34.00;30.60;;;;;;;1.55;81.22;98229.58;107626;1293;23571;-79
2022/04/11 05:23:28;;;;;;;34.10;30.40;;;;;;;1.60;81.02;98231.53;107548;1292;22342;-78
2022/04/11 05:25:57;;;;;;;35.70;32.00;;;;;;;1.66;81.21;98234.65;107331;1293;22346;-79
2022/04/11 05:28:26;;;;;;;34.80;31.40;;;;;;;1.71;81.07;98236.19;107524;1293;22353;-79
2022/04/11 05:30:59;;;;;;;44.00;39.70;;;;;;;1.74;81.08;98235.77;107519;1293;22475;-79
2022/04/11 05:33:27;;;;;;;41.70;38.00;;;;;;;1.73;81.10;98237.46;107477;1294;22369;-79
2022/04/11 05:35:58;;;;;;;39.70;36.20;;;;;;;1.72;81.10;98242.59;107420;1294;22340;-80
2022/04/11 05:38:27;;;;;;;40.80;36.70;;;;;;;1.72;80.91;98246.89;107481;1294;22559;-80
2022/04/11 05:40:56;;;;;;;32.30;29.40;;;;;;;1.75;81.18;98248.70;107548;1293;22320;-80
2022/04/11 05:43:32;;;;;;;32.20;29.10;;;;;;;1.76;80.79;98250.96;107469;1293;23176;-80
2022/04/11 05:46:01;;;;;;;34.40;30.70;;;;;;;1.76;81.20;98256.70;107282;1294;22416;-80
2022/04/11 05:48:32;;;;;;;36.00;32.40;;;;;;;1.74;81.17;98255.77;107488;1293;23041;-80
2022/04/11 05:51:00;;;;;;;33.50;30.00;;;;;;;1.69;81.48;98250.70;107485;1292;22297;-80
2022/04/11 05:53:28;;;;;;;29.40;26.20;;;;;;;1.68;81.38;98251.20;107611;1292;22544;-80
2022/04/11 05:55:56;;;;;;;30.20;27.20;;;;;;;1.71;81.41;98252.13;107315;1292;22340;-80
2022/04/11 05:58:24;;;;;;;31.50;28.50;;;;;;;1.74;81.28;98246.66;107600;1292;23164;-80
2022/04/11 06:00:56;;;;;;;30.60;27.70;;;;;;;1.76;81.42;98248.30;107529;1293;22312;-79
2022/04/11 06:03:24;;;;;;;27.30;24.60;;;;;;;1.80;81.35;98243.66;107519;1292;22283;-80
2022/04/11 06:05:52;;;;;;;27.70;24.80;;;;;;;1.85;81.36;98242.64;107490;1293;23090;-80
2022/04/11 06:08:20;;;;;;;33.10;29.50;;;;;;;1.92;81.36;98234.41;107517;1293;22618;-80
2022/04/11 06:10:48;;;;;;;31.70;28.40;;;;;;;2.00;81.34;98233.93;107538;1293;22333;-80
2022/04/11 06:13:19;;;;;;;27.10;24.50;;;;;;;2.07;81.37;98230.59;107448;1293;22273;-79
2022/04/11 06:15:48;;;;;;;25.60;23.20;;;;;;;2.12;81.37;98227.46;107321;1294;22483;-80
2022/04/11 06:18:16;;;;;;;24.70;22.30;;;;;;;2.17;81.18;98230.48;107527;1293;22251;-81
2022/04/11 06:20:46;;;;;;;25.00;22.70;;;;;;;2.21;81.19;98228.71;107617;1293;22285;-80
2022/04/11 06:23:14;;;;;;;24.20;21.80;;;;;;;2.30;81.10;98228.82;107513;1293;23040;-80
2022/04/11 06:25:42;;;;;;;24.70;22.10;;;;;;;2.36;81.11;98228.08;107625;1292;22387;-80
2022/04/11 06:28:10;;;;;;;22.20;19.90;;;;;;;2.42;81.09;98227.83;107520;1293;22515;-80
2022/04/11 06:30:38;;;;;;;23.90;21.50;;;;;;;2.43;80.82;98230.98;107615;1292;22363;-82
2022/04/11 06:33:06;;;;;;;21.30;18.20;;;;;;;2.41;80.51;98230.33;107518;1293;22270;-80
2022/04/11 06:35:34;;;;;;;17.30;15.50;;;;;;;2.44;80.48;98239.48;107496;1293;23075;-80
2022/04/11 06:38:02;;;;;;;20.10;18.00;;;;;;;2.52;80.48;98243.69;107522;1293;22480;-80
2022/04/11 06:40:30;;;;;;;21.50;19.40;;;;;;;2.59;80.57;98244.85;107525;1293;22363;-81
2022/04/11 06:42:58;;;;;;;25.00;22.30;;;;;;;2.62;80.52;98252.98;107529;1294;22937;-80
2022/04/11 06:45:46;;;;;;;18.80;16.90;;;;;;;2.67;80.10;98257.92;107357;1293;22253;-80
2022/04/11 06:48:15;;;;;;;18.00;15.70;;;;;;;2.72;79.98;98257.69;107515;1292;22370;-80
2022/04/11 06:50:43;;;;;;;20.40;18.30;;;;;;;2.76;79.72;98260.11;107515;1294;22281;-79
2022/04/11 06:53:13;;;;;;;22.00;19.80;;;;;;;2.80;79.89;98262.25;107619;1293;23136;-79
2022/04/11 06:55:44;;;;;;;20.50;18.00;;;;;;;2.85;79.89;98262.72;107599;1293;22181;-80
2022/04/11 06:58:12;;;;;;;24.30;21.80;;;;;;;2.92;79.83;98262.52;107449;1294;22363;-80
2022/04/11 07:00:40;;;;;;;22.00;19.80;;;;;;;3.00;80.17;98263.45;107588;1293;22357;-80
2022/04/11 07:03:08;;;;;;;21.80;19.70;;;;;;;3.11;80.05;98264.01;107630;1293;22316;-80
2022/04/11 07:05:37;;;;;;;20.50;18.30;;;;;;;3.20;78.99;98270.71;107617;1293;22347;-79
2022/04/11 07:08:06;;;;;;;22.00;19.70;;;;;;;3.27;79.20;98263.14;107609;1293;22454;-85
2022/04/11 07:10:34;;;;;;;20.60;18.50;;;;;;;3.39;79.05;98268.28;107614;1292;22968;-87
2022/04/11 07:13:03;;;;;;;24.30;21.70;;;;;;;3.44;78.89;98260.59;107452;1293;22373;-87
2022/04/11 07:15:32;;;;;;;34.50;31.20;;;;;;;3.51;78.85;98255.94;107453;1294;23355;-85
2022/04/11 07:18:00;;;;;;;29.10;22.70;;;;;;;3.56;78.16;98258.47;107619;1293;22395;-87
2022/04/11 07:20:28;;;;;;;18.60;16.40;;;;;;;3.62;78.40;98260.73;107704;1290;22396;-89
2022/04/11 07:22:56;;;;;;;17.10;15.40;;;;;;;3.63;77.58;98263.21;107592;1292;22435;-86
2022/04/11 07:25:24;;;;;;;22.70;17.90;;;;;;;3.68;77.79;98254.16;107873;1291;22244;-87
2022/04/11 07:27:52;;;;;;;20.90;18.70;;;;;;;3.83;78.38;98253.10;107931;1290;22265;-86
2022/04/11 07:30:20;;;;;;;22.60;20.20;;;;;;;3.97;77.67;98254.29;107664;1290;22358;-86
2022/04/11 07:32:48;;;;;;;20.70;18.20;;;;;;;4.02;77.32;98259.36;107891;1290;22410;-85
2022/04/11 07:35:16;;;;;;;23.70;19.70;;;;;;;4.06;77.23;98253.50;107995;1290;22751;-86
2022/04/11 07:37:44;;;;;;;20.30;15.60;;;;;;;4.16;76.95;98259.48;107638;1291;22259;-86
2022/04/11 07:40:12;;;;;;;17.90;14.70;;;;;;;4.22;75.87;98269.42;108236;1290;22654;-83
2022/04/11 07:42:40;;;;;;;19.20;15.10;;;;;;;4.25;76.17;98264.56;108339;1291;22322;-84
2022/04/11 07:45:08;;;;;;;20.90;16.20;;;;;;;4.30;75.10;98264.52;108332;1291;22254;-84
2022/04/11 07:47:36;;;;;;;19.90;16.10;;;;;;;4.35;75.39;98260.15;108020;1291;22440;-84
2022/04/11 07:50:06;;;;;;;23.10;17.20;;;;;;;4.36;74.68;98258.45;107957;1290;22487;-85
2022/04/11 07:52:39;;;;;;;19.10;16.30;;;;;;;4.37;75.05;98270.41;107966;1290;23031;-85
2022/04/11 07:55:08;;;;;;;19.50;16.30;;;;;;;4.32;75.24;98266.48;107693;1291;22968;-85
2022/04/11 07:57:36;;;;;;;19.80;16.70;;;;;;;4.30;75.62;98262.11;107697;1291;23237;-85
2022/04/11 08:00:22;;;;;;;20.90;16.70;;;;;;;4.27;74.93;98274.14;107895;1291;22434;-82
2022/04/11 08:02:52;;;;;;;15.80;13.00;;;;;;;4.24;73.79;98272.50;107878;1291;22897;-82
2022/04/11 08:05:20;;;;;;;16.40;12.70;;;;;;;4.24;73.68;98271.96;107862;1291;22278;-81
2022/04/11 08:07:49;;;;;;;17.30;14.10;;;;;;;4.24;73.43;98271.27;107657;1291;22261;-83
2022/04/11 08:10:17;;;;;;;18.30;14.70;;;;;;;4.33;74.05;98266.90;107871;1291;22238;-83
2022/04/11 08:12:57;;;;;;;16.40;12.40;;;;;;;4.45;73.95;98265.91;107855;1291;22998;-84
2022/04/11 08:15:27;;;;;;;18.00;12.00;;;;;;;4.52;73.35;98267.13;107840;1291;22260;-84
2022/04/11 08:17:56;;;;;;;19.30;13.10;;;;;;;4.52;72.45;98275.44;107875;1291;22379;-83
2022/04/11 08:20:25;;;;;;;20.00;15.20;;;;;;;4.46;71.92;98279.31;107882;1291;22980;-84
2022/04/11 08:22:53;;;;;;;17.10;12.20;;;;;;;4.41;72.73;98284.38;107860;1291;22267;-84
2022/04/11 08:25:21;;;;;;;17.30;12.40;;;;;;;4.35;72.65;98288.11;107866;1291;22382;-83
2022/04/11 08:27:50;;;;;;;16.30;11.00;;;;;;;4.29;71.76;98290.44;107682;1291;23101;-84
2022/04/11 08:30:18;;;;;;;14.80;12.40;;;;;;;4.26;72.48;98288.64;107576;1291;22290;-82
2022/04/11 08:32:49;;;;;;;14.30;10.80;;;;;;;4.26;72.40;98286.11;107823;1290;22299;-83
2022/04/11 08:35:21;;;;;;;15.10;11.00;;;;;;;4.28;72.57;98293.47;107832;1291;22345;-84
2022/04/11 08:37:49;;;;;;;17.70;11.70;;;;;;;4.33;72.91;98290.41;107802;1291;23010;-85
2022/04/11 08:40:19;;;;;;;15.80;11.00;;;;;;;4.38;72.45;98290.82;107555;1291;22291;-84
2022/04/11 08:42:49;;;;;;;18.70;13.00;;;;;;;4.44;72.73;98284.42;107813;1291;23248;-84
2022/04/11 08:45:23;;;;;;;14.80;12.30;;;;;;;4.51;72.38;98283.05;107819;1291;23127;-84
2022/04/11 08:47:53;;;;;;;15.70;12.20;;;;;;;4.67;72.62;98279.71;107840;1291;22372;-84
2022/04/11 08:50:24;;;;;;;14.80;10.50;;;;;;;4.86;71.86;98276.81;107811;1291;22313;-84
2022/04/11 08:52:53;;;;;;;15.80;10.60;;;;;;;4.91;70.54;98278.30;107830;1291;22454;-82
2022/04/11 08:55:22;;;;;;;16.30;12.10;;;;;;;4.81;70.30;98277.61;107845;1291;22996;-85
2022/04/11 08:57:50;;;;;;;13.20;10.10;;;;;;;4.72;70.34;98284.57;107834;1292;22318;-81
2022/04/11 09:00:20;;;;;;;12.00;8.50;;;;;;;4.65;69.10;98297.14;107821;1291;22291;-84
2022/04/11 09:02:48;;;;;;;12.00;8.30;;;;;;;4.53;69.38;98294.07;107825;1291;22301;-85
2022/04/11 09:05:22;;;;;;;12.30;9.10;;;;;;;4.45;69.78;98289.71;107539;1291;22311;-87
2022/04/11 09:07:53;;;;;;;12.40;8.90;;;;;;;4.44;70.75;98288.27;107452;1294;22584;-87
2022/04/11 09:10:29;;;;;;;10.90;7.60;;;;;;;4.56;70.34;98292.69;107841;1291;22286;-86
2022/04/11 09:12:59;;;;;;;11.20;8.10;;;;;;;4.72;70.33;98289.70;107847;1291;22414;-82
2022/04/11 09:15:28;;;;;;;12.30;8.70;;;;;;;4.83;69.88;98289.38;107834;1291;22384;-83
2022/04/11 09:17:58;;;;;;;17.50;11.20;;;;;;;4.88;69.80;98287.02;107433;1293;22241;-80
2022/04/11 09:20:28;;;;;;;11.30;8.90;;;;;;;4.94;70.48;98284.37;107800;1291;23000;-80
2022/04/11 09:22:58;;;;;;;10.90;8.70;;;;;;;5.00;70.31;98290.98;107824;1291;22252;-81
2022/04/11 09:25:30;;;;;;;11.00;9.40;;;;;;;4.98;70.06;98281.73;107810;1291;23007;-80
2022/04/11 09:28:09;;;;;;;13.50;9.10;;;;;;;5.06;70.28;98288.75;107820;1290;22328;-80
2022/04/11 09:30:39;;;;;;;9.90;8.20;;;;;;;5.19;69.96;98288.08;107974;1290;22594;-81
2022/04/11 09:33:09;;;;;;;10.00;8.10;;;;;;;5.28;70.14;98282.33;107981;1290;22263;-80
2022/04/11 09:35:39;;;;;;;19.10;17.20;;;;;;;5.34;69.73;98282.73;107960;1290;22479;-81
2022/04/11 09:38:15;;;;;;;11.60;8.80;;;;;;;5.34;69.62;98279.69;107840;1290;23143;-81
2022/04/11 09:40:50;;;;;;;36.40;19.60;;;;;;;5.43;69.89;98277.42;108019;1290;22376;-80
2022/04/11 09:43:27;;;;;;;41.20;27.90;;;;;;;5.51;68.91;98279.72;107983;1290;22436;-81
2022/04/11 09:45:56;;;;;;;16.90;10.90;;;;;;;5.67;68.68;98280.42;107962;1290;23250;-80
2022/04/11 09:48:32;;;;;;;12.20;9.50;;;;;;;5.82;68.04;98275.80;107968;1290;22355;-81
2022/04/11 09:51:00;;;;;;;9.70;8.30;;;;;;;5.92;67.59;98273.70;107961;1290;22465;-82
2022/04/11 09:53:34;;;;;;;11.50;9.20;;;;;;;5.96;67.06;98265.33;107986;1290;23196;-81
2022/04/11 09:56:08;;;;;;;10.10;8.20;;;;;;;6.01;67.43;98265.93;107996;1290;22403;-82
2022/04/11 09:58:39;;;;;;;10.80;8.40;;;;;;;6.12;66.98;98261.77;107704;1290;22900;-81
2022/04/11 10:01:08;;;;;;;14.30;9.70;;;;;;;6.19;65.70;98263.67;107966;1290;22629;-81
2022/04/11 10:03:38;;;;;;;10.50;8.10;;;;;;;6.27;65.73;98262.64;107957;1290;22444;-82
2022/04/11 10:06:06;;;;;;;11.30;8.70;;;;;;;6.37;64.91;98268.45;107949;1290;22320;-78
2022/04/11 10:08:34;;;;;;;13.60;8.80;;;;;;;6.48;65.34;98262.19;107955;1290;23207;-87
2022/04/11 10:11:04;;;;;;;10.10;7.70;;;;;;;6.59;63.90;98273.99;107977;1290;22399;-84
2022/04/11 10:13:35;;;;;;;8.90;6.50;;;;;;;6.36;62.15;98275.04;107986;1290;22286;-82
2022/04/11 10:16:05;;;;;;;10.00;7.60;;;;;;;6.06;63.16;98284.05;107989;1290;22391;-84
2022/04/11 10:18:34;;;;;;;14.30;9.40;;;;;;;5.81;64.91;98271.20;107987;1290;22419;-86
2022/04/11 10:21:04;;;;;;;10.90;7.60;;;;;;;5.67;65.85;98270.53;107998;1290;22305;-86
2022/04/11 10:24:27;;;;;;;26.10;15.30;;;;;;;5.80;66.63;98264.14;107997;1290;23090;-85
2022/04/11 10:26:56;;;;;;;11.70;7.40;;;;;;;6.12;65.92;98262.02;107873;1290;22359;-88
2022/04/11 10:29:34;;;;;;;16.40;11.50;;;;;;;6.31;65.35;98256.50;107825;1290;22267;-88
2022/04/11 10:32:10;;;;;;;9.10;7.00;;;;;;;6.43;62.18;98274.27;107573;1291;23106;-84
2022/04/11 10:34:45;;;;;;;9.70;7.30;;;;;;;6.43;62.90;98270.69;107787;1291;22341;-86
2022/04/11 10:37:14;;;;;;;10.80;8.30;;;;;;;6.43;62.60;98265.97;107847;1291;22482;-85
2022/04/11 10:39:44;;;;;;;9.40;6.40;;;;;;;6.44;61.85;98266.61;107560;1291;23117;-87
2022/04/11 10:42:16;;;;;;;9.40;6.50;;;;;;;6.47;61.88;98270.91;107811;1290;22380;-88
2022/04/11 10:44:50;;;;;;;8.90;6.70;;;;;;;6.47;60.96;98267.85;107463;1291;22380;-86
2022/04/11 10:47:30;;;;;;;12.30;7.50;;;;;;;6.55;61.53;98262.95;107801;1291;22490;-86
2022/04/11 10:49:58;;;;;;;9.40;6.30;;;;;;;6.72;60.78;98272.59;107820;1291;22350;-87
2022/04/11 10:52:35;;;;;;;8.60;6.60;;;;;;;6.94;60.07;98254.57;107812;1291;22280;-86
2022/04/11 10:55:10;;;;;;;8.10;5.50;;;;;;;7.05;59.93;98245.10;107818;1290;23001;-88
2022/04/11 10:57:52;;;;;;;6.30;4.40;;;;;;;7.20;57.87;98256.04;107802;1291;22274;-86
2022/04/11 11:00:22;;;;;;;7.50;5.20;;;;;;;7.31;56.01;98258.41;107823;1291;23117;-87
2022/04/11 11:02:52;;;;;;;6.20;5.20;;;;;;;7.36;56.39;98240.23;107810;1291;22263;-86
2022/04/11 11:05:36;;;;;;;7.20;5.50;;;;;;;7.44;56.71;98238.35;107839;1291;23183;-85
2022/04/11 11:08:11;;;;;;;8.20;6.30;;;;;;;7.53;56.69;98235.23;107763;1291;22428;-88
2022/04/11 11:10:49;;;;;;;7.20;5.10;;;;;;;7.62;56.40;98242.77;107799;1291;22291;-88
2022/04/11 11:13:37;;;;;;;9.50;6.00;;;;;;;7.47;54.85;98234.37;107819;1291;23176;-86
2022/04/11 11:16:06;;;;;;;8.20;5.80;;;;;;;7.58;56.01;98231.89;107600;1291;23268;-85
2022/04/11 11:18:49;;;;;;;10.60;6.60;;;;;;;7.64;54.92;98231.61;107837;1291;23208;-85
2022/04/11 11:21:16;;;;;;;8.80;5.60;;;;;;;7.59;54.80;98240.63;107855;1290;23089;-84
2022/04/11 11:26:40;;;;;;;8.80;6.20;;;;;;;7.32;55.69;98228.65;107833;1290;22338;-84
2022/04/11 11:29:16;;;;;;;8.60;6.60;;;;;;;7.23;55.58;98226.60;107761;1290;22448;-86
2022/04/11 11:31:45;;;;;;;9.20;6.90;;;;;;;7.09;54.46;98223.98;107624;1291;23131;-83
2022/04/11 11:34:15;;;;;;;10.00;6.80;;;;;;;6.94;55.56;98230.04;107811;1290;22627;-86
2022/04/11 11:36:44;;;;;;;10.70;7.50;;;;;;;6.84;55.85;98226.54;107832;1291;22425;-84